createdAt,value
2019-01-23T04:16:08.636Z,24.43
2019-01-23T04:18:38.123Z,25.27
2019-01-23T04:21:07.307Z,23.63
2019-01-23T04:23:36.313Z,27.30
2019-01-23T04:26:05.453Z,27.70
2019-01-23T04:28:34.449Z,28.50
2019-01-23T04:31:03.548Z,27.20
2019-01-23T04:33:32.530Z,27.70
2019-01-23T04:36:01.599Z,28.33
2019-01-23T04:38:30.725Z,26.50
2019-01-23T04:40:59.724Z,24.13
2019-01-23T04:43:28.911Z,24.97
2019-01-23T04:45:58.030Z,25.00
2019-01-23T04:48:26.963Z,27.50
2019-01-23T04:51:13.697Z,26.40
2019-01-23T04:53:44.857Z,25.60
2019-01-23T04:56:13.956Z,27.97
2019-01-23T04:58:43.027Z,28.83
2019-01-23T05:01:12.352Z,25.93
2019-01-23T05:03:41.384Z,27.03
2019-01-23T05:06:10.461Z,26.63
2019-01-23T05:08:39.536Z,27.40
2019-01-23T05:11:08.652Z,29.87
2019-01-23T05:13:37.753Z,28.70
2019-01-23T05:16:06.924Z,30.90
2019-01-23T05:18:35.955Z,35.70
2019-01-23T05:21:05.445Z,34.80
2019-01-23T05:23:34.623Z,31.40
2019-01-23T05:26:03.721Z,32.27
2019-01-23T05:28:32.843Z,33.87
2019-01-23T05:31:01.936Z,35.67
2019-01-23T05:33:31.077Z,32.93
2019-01-23T05:36:00.251Z,32.17
2019-01-23T05:38:29.335Z,32.87
2019-01-23T05:40:58.360Z,33.37
2019-01-23T05:43:27.406Z,37.93
2019-01-23T05:45:58.254Z,34.40
2019-01-23T05:48:27.287Z,34.53
2019-01-23T05:50:56.305Z,34.77
2019-01-23T05:53:25.386Z,35.73
2019-01-23T05:55:54.518Z,32.10
2019-01-23T05:58:23.611Z,36.27
2019-01-23T06:00:52.665Z,32.30
2019-01-23T06:03:21.855Z,32.43
2019-01-23T06:05:50.983Z,37.33
2019-01-23T06:08:19.978Z,36.90
2019-01-23T06:10:48.999Z,37.47
2019-01-23T06:13:17.998Z,34.93
2019-01-23T06:15:47.011Z,33.30
2019-01-23T06:18:16.139Z,34.80
2019-01-23T06:20:45.331Z,32.77
2019-01-23T06:23:14.269Z,31.67
2019-01-23T06:25:43.399Z,30.57
2019-01-23T06:28:12.427Z,34.00
2019-01-23T06:30:41.524Z,30.03
2019-01-23T06:33:10.810Z,34.17
2019-01-23T06:35:39.874Z,32.30
2019-01-23T06:38:08.950Z,30.27
2019-01-23T06:40:38.395Z,30.90
2019-01-23T06:43:07.551Z,32.33
2019-01-23T06:45:36.495Z,32.23
2019-01-23T06:48:06.004Z,33.83
2019-01-23T06:50:34.996Z,31.20
2019-01-23T06:53:04.163Z,30.90
2019-01-23T06:55:33.371Z,33.37
2019-01-23T06:58:02.483Z,31.00
2019-01-23T07:00:31.600Z,32.27
2019-01-23T07:03:00.673Z,30.57
2019-01-23T07:05:29.663Z,32.37
2019-01-23T07:07:58.654Z,27.50
2019-01-23T07:10:27.799Z,31.80
2019-01-23T07:12:56.779Z,33.53
2019-01-23T07:15:25.779Z,30.47
2019-01-23T07:17:54.966Z,34.57
2019-01-23T07:20:27.955Z,31.63
2019-01-23T07:22:57.053Z,31.47
2019-01-23T07:25:27.165Z,33.63
2019-01-23T07:27:56.155Z,31.73
2019-01-23T07:30:27.663Z,32.13
2019-01-23T07:32:56.766Z,32.20
2019-01-23T07:35:25.907Z,31.93
2019-01-23T07:37:55.070Z,35.37
2019-01-23T07:40:24.239Z,29.43
2019-01-23T07:42:53.691Z,32.57
2019-01-23T07:45:23.165Z,29.57
2019-01-23T07:47:52.203Z,28.80
2019-01-23T07:50:21.259Z,31.23
2019-01-23T07:52:50.332Z,31.27
2019-01-23T07:55:20.578Z,29.90
2019-01-23T07:57:49.763Z,29.73
2019-01-23T08:00:20.162Z,32.50
2019-01-23T08:02:49.498Z,30.60
2019-01-23T08:05:20.793Z,32.67
2019-01-23T08:07:50.051Z,31.13
2019-01-23T08:10:19.634Z,31.60
2019-01-23T08:12:48.753Z,31.30
2019-01-23T08:15:23.229Z,34.10
2019-01-23T08:17:52.209Z,31.37
2019-01-23T08:20:21.913Z,31.27
2019-01-23T08:22:50.980Z,31.43
2019-01-23T08:25:20.095Z,32.30
2019-01-23T08:27:49.137Z,30.67
2019-01-23T08:30:19.858Z,31.07
2019-01-23T08:32:49.070Z,30.13
2019-01-23T08:35:18.342Z,32.57
2019-01-23T08:37:47.591Z,28.10
2019-01-23T08:40:16.724Z,31.97
2019-01-23T08:42:46.049Z,27.87
2019-01-23T08:45:15.146Z,30.50
2019-01-23T08:47:44.298Z,30.37
2019-01-23T08:50:19.654Z,30.60
2019-01-23T08:52:48.765Z,26.40
2019-01-23T08:55:18.059Z,29.10
2019-01-23T08:57:47.215Z,29.37
2019-01-23T09:00:16.349Z,29.70
2019-01-23T09:02:45.580Z,32.93
2019-01-23T09:05:14.781Z,26.03
2019-01-23T09:07:43.919Z,31.77
2019-01-23T09:10:16.041Z,28.23
2019-01-23T09:12:45.134Z,29.03
2019-01-23T09:15:15.117Z,28.43
2019-01-23T09:17:44.248Z,28.40
2019-01-23T09:20:14.091Z,24.37
2019-01-23T09:22:43.102Z,27.67
2019-01-23T09:25:14.240Z,30.73
2019-01-23T09:27:43.406Z,30.43
2019-01-23T09:30:18.934Z,28.00
2019-01-23T09:33:36.531Z,28.83
2019-01-23T09:36:47.941Z,25.97
2019-01-23T09:39:58.214Z,26.87
2019-01-23T09:43:16.078Z,25.17
2019-01-23T09:46:28.914Z,25.30
2019-01-23T09:49:47.078Z,27.77
2019-01-23T09:52:50.999Z,28.73
2019-01-23T09:55:20.194Z,25.80
2019-01-23T09:57:52.931Z,25.23
2019-01-23T10:00:25.005Z,26.97
2019-01-23T10:02:54.138Z,25.30
2019-01-23T10:05:23.151Z,27.60
2019-01-23T10:07:52.235Z,23.30
2019-01-23T10:10:21.339Z,22.60
2019-01-23T10:12:50.418Z,25.50
2019-01-23T10:15:23.478Z,25.43
2019-01-23T10:17:52.479Z,24.90
2019-01-23T10:20:21.728Z,23.50
2019-01-23T10:22:50.851Z,21.20
2019-01-23T10:25:20.018Z,26.17
2019-01-23T10:27:49.168Z,26.37
2019-01-23T10:30:18.314Z,25.70
2019-01-23T10:32:47.472Z,25.60
2019-01-23T10:35:16.584Z,24.80
2019-01-23T10:37:45.710Z,23.67
2019-01-23T10:40:15.732Z,21.60
2019-01-23T10:42:44.899Z,24.10
2019-01-23T10:45:14.274Z,22.40
2019-01-23T10:47:43.755Z,24.77
2019-01-23T10:50:13.346Z,22.90
2019-01-23T10:52:42.450Z,24.50
2019-01-23T10:55:12.219Z,23.20
2019-01-23T10:57:41.692Z,24.33
2019-01-23T11:00:13.854Z,23.90
2019-01-23T11:02:42.955Z,23.70
2019-01-23T11:05:14.969Z,22.90
2019-01-23T11:07:44.069Z,25.03
2019-01-23T11:10:15.467Z,25.37
2019-01-23T11:12:44.546Z,22.47
2019-01-23T11:15:14.159Z,22.63
2019-01-23T11:17:43.310Z,24.70
2019-01-23T11:20:14.358Z,24.53
2019-01-23T11:22:43.423Z,22.63
2019-01-23T11:25:12.925Z,23.77
2019-01-23T11:27:42.487Z,23.67
2019-01-23T11:30:20.861Z,22.83
2019-01-23T11:32:49.950Z,22.93
2019-01-23T11:35:19.022Z,25.13
2019-01-23T11:37:48.233Z,24.30
2019-01-23T11:40:20.330Z,22.40
2019-01-23T11:42:49.334Z,21.70
2019-01-23T11:45:18.392Z,22.00
2019-01-23T11:47:47.470Z,22.10
2019-01-23T11:50:21.883Z,21.70
2019-01-23T11:52:48.727Z,22.27
2019-01-23T11:55:17.989Z,25.50
2019-01-23T11:57:47.153Z,21.90
2019-01-23T12:00:18.291Z,20.87
2019-01-23T12:02:47.363Z,20.23
2019-01-23T12:05:18.152Z,21.47
2019-01-23T12:07:47.934Z,23.30
2019-01-23T12:10:19.086Z,21.20
2019-01-23T12:12:48.267Z,19.30
2019-01-23T12:15:19.266Z,21.23
2019-01-23T12:17:48.499Z,20.40
2019-01-23T12:20:17.673Z,20.53
2019-01-23T12:22:46.775Z,20.90
2019-01-23T12:25:16.009Z,22.40
2019-01-23T12:27:45.105Z,20.40
2019-01-23T12:30:19.831Z,20.20
2019-01-23T12:32:48.861Z,17.80
2019-01-23T12:35:18.088Z,18.40
2019-01-23T12:37:47.254Z,21.60
2019-01-23T12:40:16.575Z,20.70
2019-01-23T12:42:45.631Z,19.07
2019-01-23T12:45:17.663Z,19.40
2019-01-23T12:47:46.800Z,20.20
2019-01-23T12:50:17.601Z,20.07
2019-01-23T12:52:46.704Z,19.07
2019-01-23T12:55:15.714Z,19.10
2019-01-23T12:57:44.781Z,19.60
2019-01-23T13:00:17.991Z,19.40
2019-01-23T13:02:47.139Z,19.50
2019-01-23T13:05:18.540Z,19.87
2019-01-23T13:07:47.936Z,19.60
2019-01-23T13:10:18.431Z,19.03
2019-01-23T13:12:47.527Z,18.27
2019-01-23T13:15:18.961Z,16.47
2019-01-23T13:17:48.033Z,18.17
2019-01-23T13:20:17.865Z,22.70
2019-01-23T13:22:47.075Z,18.73
2019-01-23T13:25:18.092Z,18.07
2019-01-23T13:27:47.698Z,19.67
2019-01-23T13:30:18.695Z,18.27
2019-01-23T13:32:48.063Z,17.63
2019-01-23T13:35:19.427Z,19.03
2019-01-23T13:37:48.756Z,16.73
2019-01-23T13:40:23.139Z,18.90
2019-01-23T13:42:52.143Z,17.23
2019-01-23T13:45:21.338Z,21.50
2019-01-23T13:47:50.406Z,19.77
2019-01-23T13:50:19.564Z,18.80
2019-01-23T13:52:48.733Z,19.63
2019-01-23T13:55:19.791Z,16.97
2019-01-23T13:57:48.945Z,18.90
2019-01-23T14:00:23.293Z,17.53
2019-01-23T14:02:52.463Z,18.07
2019-01-23T14:05:21.530Z,17.23
2019-01-23T14:07:50.714Z,18.47
2019-01-23T14:10:19.807Z,16.40
2019-01-23T14:12:48.794Z,17.07
2019-01-23T14:15:21.485Z,17.50
2019-01-23T14:17:50.506Z,18.80
2019-01-23T14:20:19.599Z,17.37
2019-01-23T14:22:48.770Z,17.00
2019-01-23T14:25:17.903Z,18.87
2019-01-23T14:27:46.992Z,19.17
2019-01-23T14:30:37.276Z,15.57
2019-01-23T14:33:06.374Z,18.60
2019-01-23T14:35:36.827Z,17.27
2019-01-23T14:38:06.131Z,17.47
2019-01-23T14:40:35.447Z,19.37
2019-01-23T14:43:05.424Z,17.70
2019-01-23T14:45:34.482Z,17.53
2019-01-23T14:48:03.646Z,15.87
2019-01-23T14:50:32.655Z,16.93
2019-01-23T14:53:01.754Z,17.53
2019-01-23T14:55:30.769Z,15.40
2019-01-23T14:57:59.846Z,19.83
2019-01-23T15:00:29.164Z,17.80
2019-01-23T15:02:58.255Z,18.33
2019-01-23T15:05:27.487Z,16.73
2019-01-23T15:07:56.457Z,19.20
2019-01-23T15:10:27.181Z,19.30
2019-01-23T15:12:56.273Z,17.43
2019-01-23T15:15:25.678Z,19.27
2019-01-23T15:17:55.098Z,19.53
2019-01-23T15:20:30.321Z,18.07
2019-01-23T15:22:59.479Z,20.03
2019-01-23T15:25:28.782Z,18.77
2019-01-23T15:27:57.841Z,19.50
2019-01-23T15:30:27.116Z,19.40
2019-01-23T15:32:56.129Z,18.90
2019-01-23T15:35:25.211Z,17.83
2019-01-23T15:37:54.223Z,18.50
2019-01-23T15:40:25.665Z,17.67
2019-01-23T15:42:54.736Z,19.80
2019-01-23T15:45:23.985Z,16.93
2019-01-23T15:47:52.973Z,17.27
2019-01-23T15:50:23.492Z,17.10
2019-01-23T15:52:52.685Z,20.73
2019-01-23T15:55:23.355Z,21.53
2019-01-23T15:57:52.445Z,18.00
2019-01-23T16:00:23.707Z,18.47
2019-01-23T16:02:52.890Z,21.00
2019-01-23T16:05:21.950Z,20.97
2019-01-23T16:07:51.087Z,20.13
2019-01-23T16:10:22.247Z,22.23
2019-01-23T16:12:51.319Z,21.13
2019-01-23T16:15:22.526Z,22.70
2019-01-23T16:17:51.483Z,21.30
2019-01-23T16:20:20.557Z,21.23
2019-01-23T16:22:49.675Z,20.77
2019-01-23T16:25:18.981Z,21.17
2019-01-23T16:27:48.260Z,22.80
2019-01-23T16:30:25.847Z,22.20
2019-01-23T16:32:54.854Z,21.87
2019-01-23T16:35:23.923Z,24.53
2019-01-23T16:37:53.134Z,24.70
2019-01-23T16:40:22.203Z,24.43
2019-01-23T16:42:51.288Z,23.93
2019-01-23T16:45:20.766Z,23.67
2019-01-23T16:47:49.848Z,24.27
2019-01-23T16:50:21.779Z,23.37
2019-01-23T16:52:50.899Z,23.80
2019-01-23T16:55:20.289Z,26.67
2019-01-23T16:57:49.668Z,23.93
2019-01-23T17:00:21.539Z,25.23
2019-01-23T17:02:50.647Z,21.60
2019-01-23T17:05:25.586Z,24.63
2019-01-23T17:07:55.539Z,23.90
2019-01-23T17:10:25.231Z,22.60
2019-01-23T17:12:54.415Z,22.50
2019-01-23T17:15:23.527Z,23.90
2019-01-23T17:17:54.492Z,27.97
2019-01-23T17:20:30.150Z,25.33
2019-01-23T17:22:59.245Z,24.10
2019-01-23T17:25:28.339Z,23.87
2019-01-23T17:27:57.546Z,25.17
2019-01-23T17:30:26.885Z,25.20
2019-01-23T17:32:55.881Z,25.03
2019-01-23T17:35:24.994Z,25.63
2019-01-23T17:37:54.058Z,27.30
2019-01-23T17:40:23.101Z,25.73
2019-01-23T17:42:52.329Z,24.40
2019-01-23T17:45:23.916Z,23.47
2019-01-23T17:47:53.087Z,26.30
2019-01-23T17:50:22.510Z,26.60
2019-01-23T17:52:51.915Z,27.30
2019-01-23T17:55:26.583Z,25.27
2019-01-23T17:57:55.623Z,26.37
2019-01-23T18:00:27.083Z,27.00
2019-01-23T18:02:56.386Z,26.73
2019-01-23T18:05:25.786Z,26.83
2019-01-23T18:07:55.524Z,26.47
2019-01-23T18:10:24.690Z,28.20
2019-01-23T18:12:53.727Z,28.73
2019-01-23T18:15:24.223Z,27.47
2019-01-23T18:17:53.338Z,26.50
2019-01-23T18:20:27.376Z,25.87
2019-01-23T18:22:56.516Z,28.03
2019-01-23T18:25:25.778Z,27.77
2019-01-23T18:27:54.927Z,27.80
2019-01-23T18:30:27.292Z,26.97
2019-01-23T18:33:00.274Z,26.40
2019-01-23T18:35:58.883Z,26.03
2019-01-23T18:39:10.250Z,26.80
2019-01-23T18:42:05.775Z,28.20
2019-01-23T18:45:06.603Z,27.20
2019-01-23T18:48:05.306Z,27.77
2019-01-23T18:51:16.281Z,28.57
2019-01-23T18:53:45.336Z,26.80
2019-01-23T18:56:14.433Z,24.50
2019-01-23T18:58:43.539Z,26.30
2019-01-23T19:01:12.574Z,28.90
2019-01-23T19:03:41.666Z,25.20
2019-01-23T19:06:10.829Z,28.77
2019-01-23T19:08:40.069Z,25.63
2019-01-23T19:11:09.147Z,27.40
2019-01-23T19:13:38.290Z,27.47
2019-01-23T19:16:07.954Z,28.57
2019-01-23T19:18:37.091Z,29.23
2019-01-23T19:21:06.819Z,28.37
2019-01-23T19:23:35.918Z,26.07
2019-01-23T19:26:05.723Z,26.70
2019-01-23T19:28:34.858Z,25.80
2019-01-23T19:31:04.111Z,25.47
2019-01-23T19:33:33.111Z,28.50
2019-01-23T19:36:02.264Z,27.20
2019-01-23T19:38:32.537Z,28.07
2019-01-23T19:41:01.650Z,26.77
2019-01-23T19:43:30.786Z,25.70
2019-01-23T19:46:00.051Z,25.50
2019-01-23T19:48:29.179Z,29.40
2019-01-23T19:50:58.246Z,26.57
2019-01-23T19:53:27.441Z,27.50
2019-01-23T19:55:56.509Z,28.97
2019-01-23T19:58:25.577Z,29.57
2019-01-23T20:00:54.586Z,28.47
2019-01-23T20:03:23.686Z,25.50
2019-01-23T20:05:52.836Z,26.80
2019-01-23T20:08:21.868Z,26.00
2019-01-23T20:10:51.031Z,29.47
2019-01-23T20:13:20.135Z,27.90
2019-01-23T20:15:49.677Z,25.63
2019-01-23T20:18:18.676Z,27.37
2019-01-23T20:20:47.746Z,26.53
2019-01-23T20:23:16.791Z,24.30
2019-01-23T20:25:45.779Z,27.60
2019-01-23T20:28:15.063Z,25.03
2019-01-23T20:30:45.404Z,26.50
2019-01-23T20:33:14.469Z,25.30
2019-01-23T20:35:43.583Z,28.17
2019-01-23T20:38:12.709Z,24.63
2019-01-23T20:40:41.873Z,24.57
2019-01-23T20:43:10.946Z,25.17
2019-01-23T20:45:40.206Z,26.50
2019-01-23T20:48:10.683Z,28.20
2019-01-23T20:50:39.694Z,26.17
2019-01-23T20:53:08.825Z,22.40
2019-01-23T20:55:37.862Z,23.10
2019-01-23T20:58:06.947Z,27.57
2019-01-23T21:00:36.379Z,25.30
2019-01-23T21:03:05.855Z,25.23
2019-01-23T21:05:35.068Z,24.07
2019-01-23T21:08:04.278Z,24.53
2019-01-23T21:10:33.485Z,26.70
2019-01-23T21:13:02.645Z,26.80
2019-01-23T21:15:32.917Z,25.50
2019-01-23T21:18:02.991Z,26.50
2019-01-23T21:20:34.734Z,25.57
2019-01-23T21:23:03.946Z,24.80
2019-01-23T21:25:33.017Z,27.37
2019-01-23T21:28:01.965Z,26.63
2019-01-23T21:30:31.114Z,25.60
2019-01-23T21:33:00.295Z,24.17
2019-01-23T21:35:29.297Z,24.47
2019-01-23T21:37:58.410Z,25.10
2019-01-23T21:40:29.945Z,24.87
2019-01-23T21:42:58.966Z,26.87
2019-01-23T21:45:28.727Z,26.17
2019-01-23T21:47:57.758Z,27.00
2019-01-23T21:50:27.227Z,25.07
2019-01-23T21:52:56.381Z,24.60
2019-01-23T21:55:25.792Z,25.57
2019-01-23T21:57:54.891Z,26.60
2019-01-23T22:00:32.345Z,24.40
2019-01-23T22:03:01.945Z,23.63
2019-01-23T22:05:31.019Z,24.40
2019-01-23T22:08:00.124Z,26.10
2019-01-23T22:10:29.243Z,27.13
2019-01-23T22:12:58.245Z,26.60
2019-01-23T22:15:27.670Z,25.40
2019-01-23T22:17:56.764Z,24.20
2019-01-23T22:20:27.221Z,26.87
2019-01-23T22:22:56.242Z,27.33
2019-01-23T22:25:25.551Z,27.80
2019-01-23T22:27:54.809Z,29.23
2019-01-23T22:30:26.104Z,28.70
2019-01-23T22:32:55.195Z,30.20
2019-01-23T22:35:24.380Z,29.67
2019-01-23T22:37:53.476Z,28.27
2019-01-23T22:40:22.549Z,29.47
2019-01-23T22:42:51.677Z,26.87
2019-01-23T22:45:20.979Z,26.53
2019-01-23T22:47:50.070Z,26.97
2019-01-23T22:50:21.278Z,27.90
2019-01-23T22:52:50.794Z,29.00
2019-01-23T22:55:19.919Z,28.77
2019-01-23T22:57:49.023Z,27.07
2019-01-23T23:00:42.347Z,27.50
2019-01-23T23:03:13.804Z,28.00
2019-01-23T23:05:42.965Z,28.17
2019-01-23T23:08:12.154Z,29.30
2019-01-23T23:10:41.239Z,26.70
2019-01-23T23:13:10.433Z,26.40
2019-01-23T23:15:39.752Z,26.90
2019-01-23T23:18:08.939Z,24.90
2019-01-23T23:20:37.931Z,25.87
2019-01-23T23:23:07.059Z,25.33
2019-01-23T23:25:36.141Z,28.10
2019-01-23T23:28:05.742Z,26.10
